sensor_id;sensor_type;location;lat;lon;timestamp;P1;durP1;ratioP1;P2;durP2;ratioP2
42668;SDS011;29384;42.028;21.388;2022-08-07T00:00:33;2.35;;;1.73;;
42668;SDS011;29384;42.028;21.388;2022-08-07T00:02:59;2.20;;;2.05;;
42668;SDS011;29384;42.028;21.388;2022-08-07T00:05:25;2.53;;;2.42;;
42668;SDS011;29384;42.028;21.388;2022-08-07T00:07:52;3.42;;;2.63;;
42668;SDS011;29384;42.028;21.388;2022-08-07T00:10:19;3.47;;;1.83;;
42668;SDS011;29384;42.028;21.388;2022-08-07T00:12:44;1.67;;;1.58;;
42668;SDS011;29384;42.028;21.388;2022-08-07T00:15:10;1.60;;;1.52;;
42668;SDS011;29384;42.028;21.388;2022-08-07T00:17:36;1.83;;;1.73;;
42668;SDS011;29384;42.028;21.388;2022-08-07T00:20:05;1.50;;;1.50;;
42668;SDS011;29384;42.028;21.388;2022-08-07T00:22:31;1.45;;;1.45;;
42668;SDS011;29384;42.028;21.388;2022-08-07T00:24:56;1.85;;;1.75;;
42668;SDS011;29384;42.028;21.388;2022-08-07T00:30:44;7.60;;;4.40;;
42668;SDS011;29384;42.028;21.388;2022-08-07T00:33:09;4.20;;;3.85;;
42668;SDS011;29384;42.028;21.388;2022-08-07T00:35:35;8.32;;;5.38;;
42668;SDS011;29384;42.028;21.388;2022-08-07T00:38:00;12.07;;;4.55;;
42668;SDS011;29384;42.028;21.388;2022-08-07T00:40:26;10.63;;;4.75;;
42668;SDS011;29384;42.028;21.388;2022-08-07T00:42:53;5.13;;;4.03;;
42668;SDS011;29384;42.028;21.388;2022-08-07T00:45:18;4.60;;;4.22;;
42668;SDS011;29384;42.028;21.388;2022-08-07T00:47:45;6.07;;;3.83;;
42668;SDS011;29384;42.028;21.388;2022-08-07T00:50:12;9.57;;;5.07;;
42668;SDS011;29384;42.028;21.388;2022-08-07T00:52:37;6.20;;;4.05;;
42668;SDS011;29384;42.028;21.388;2022-08-07T00:55:03;10.40;;;4.55;;
42668;SDS011;29384;42.028;21.388;2022-08-07T01:00:51;4.32;;;4.05;;
42668;SDS011;29384;42.028;21.388;2022-08-07T01:03:16;13.95;;;4.18;;
42668;SDS011;29384;42.028;21.388;2022-08-07T01:05:43;7.18;;;4.07;;
42668;SDS011;29384;42.028;21.388;2022-08-07T01:08:10;13.43;;;5.75;;
42668;SDS011;29384;42.028;21.388;2022-08-07T01:10:36;11.35;;;3.95;;
42668;SDS011;29384;42.028;21.388;2022-08-07T01:13:03;18.20;;;4.88;;
42668;SDS011;29384;42.028;21.388;2022-08-07T01:15:29;4.60;;;4.20;;
42668;SDS011;29384;42.028;21.388;2022-08-07T01:17:57;6.85;;;5.32;;
42668;SDS011;29384;42.028;21.388;2022-08-07T01:20:27;10.45;;;4.60;;
42668;SDS011;29384;42.028;21.388;2022-08-07T01:22:58;6.78;;;5.28;;
42668;SDS011;29384;42.028;21.388;2022-08-07T01:25:24;5.88;;;4.63;;
42668;SDS011;29384;42.028;21.388;2022-08-07T01:27:50;6.00;;;4.32;;
42668;SDS011;29384;42.028;21.388;2022-08-07T01:30:16;4.25;;;3.95;;
42668;SDS011;29384;42.028;21.388;2022-08-07T01:32:42;27.50;;;4.85;;
42668;SDS011;29384;42.028;21.388;2022-08-07T01:35:07;7.75;;;5.20;;
42668;SDS011;29384;42.028;21.388;2022-08-07T01:37:34;9.50;;;5.18;;
42668;SDS011;29384;42.028;21.388;2022-08-07T01:39:59;14.43;;;4.70;;
42668;SDS011;29384;42.028;21.388;2022-08-07T01:45:49;6.85;;;5.07;;
42668;SDS011;29384;42.028;21.388;2022-08-07T01:48:15;13.07;;;4.68;;
42668;SDS011;29384;42.028;21.388;2022-08-07T01:50:41;4.22;;;3.92;;
42668;SDS011;29384;42.028;21.388;2022-08-07T01:53:09;8.27;;;4.65;;
42668;SDS011;29384;42.028;21.388;2022-08-07T01:55:38;7.97;;;4.45;;
42668;SDS011;29384;42.028;21.388;2022-08-07T01:58:09;8.77;;;4.70;;
42668;SDS011;29384;42.028;21.388;2022-08-07T02:00:38;5.60;;;4.60;;
42668;SDS011;29384;42.028;21.388;2022-08-07T02:03:06;7.63;;;4.80;;
42668;SDS011;29384;42.028;21.388;2022-08-07T02:05:38;5.45;;;4.50;;
42668;SDS011;29384;42.028;21.388;2022-08-07T02:08:09;5.10;;;3.95;;
42668;SDS011;29384;42.028;21.388;2022-08-07T02:10:37;7.75;;;3.97;;
42668;SDS011;29384;42.028;21.388;2022-08-07T02:13:04;5.00;;;4.50;;
42668;SDS011;29384;42.028;21.388;2022-08-07T02:15:30;13.35;;;4.72;;
42668;SDS011;29384;42.028;21.388;2022-08-07T02:17:58;4.78;;;3.15;;
42668;SDS011;29384;42.028;21.388;2022-08-07T02:20:25;4.47;;;3.55;;
42668;SDS011;29384;42.028;21.388;2022-08-07T02:23:00;4.55;;;3.15;;
42668;SDS011;29384;42.028;21.388;2022-08-07T02:25:29;3.55;;;3.33;;
42668;SDS011;29384;42.028;21.388;2022-08-07T02:31:19;4.47;;;4.00;;
42668;SDS011;29384;42.028;21.388;2022-08-07T02:33:46;4.90;;;4.00;;
42668;SDS011;29384;42.028;21.388;2022-08-07T02:36:13;3.80;;;3.55;;
42668;SDS011;29384;42.028;21.388;2022-08-07T02:38:40;4.25;;;3.65;;
42668;SDS011;29384;42.028;21.388;2022-08-07T02:41:06;4.57;;;3.58;;
42668;SDS011;29384;42.028;21.388;2022-08-07T02:43:33;3.63;;;3.42;;
42668;SDS011;29384;42.028;21.388;2022-08-07T02:46:00;3.17;;;2.95;;
42668;SDS011;29384;42.028;21.388;2022-08-07T02:48:29;3.28;;;3.03;;
42668;SDS011;29384;42.028;21.388;2022-08-07T02:50:54;13.98;;;4.30;;
42668;SDS011;29384;42.028;21.388;2022-08-07T02:53:25;3.25;;;3.00;;
42668;SDS011;29384;42.028;21.388;2022-08-07T02:55:56;5.03;;;3.80;;
42668;SDS011;29384;42.028;21.388;2022-08-07T02:58:25;3.38;;;3.17;;
42668;SDS011;29384;42.028;21.388;2022-08-07T03:00:53;29.65;;;3.53;;
42668;SDS011;29384;42.028;21.388;2022-08-07T03:03:21;3.55;;;3.35;;
42668;SDS011;29384;42.028;21.388;2022-08-07T03:05:52;3.20;;;2.95;;
42668;SDS011;29384;42.028;21.388;2022-08-07T03:08:20;3.53;;;3.10;;
42668;SDS011;29384;42.028;21.388;2022-08-07T03:10:46;3.50;;;3.20;;
42668;SDS011;29384;42.028;21.388;2022-08-07T03:17:11;3.50;;;3.17;;
42668;SDS011;29384;42.028;21.388;2022-08-07T03:19:37;2.95;;;2.80;;
42668;SDS011;29384;42.028;21.388;2022-08-07T03:22:03;3.78;;;3.35;;
42668;SDS011;29384;42.028;21.388;2022-08-07T03:24:30;4.97;;;3.22;;
42668;SDS011;29384;42.028;21.388;2022-08-07T03:26:59;3.22;;;3.00;;
42668;SDS011;29384;42.028;21.388;2022-08-07T03:29:31;3.65;;;3.45;;
42668;SDS011;29384;42.028;21.388;2022-08-07T03:32:00;3.50;;;3.10;;
42668;SDS011;29384;42.028;21.388;2022-08-07T03:34:28;2.95;;;2.75;;
42668;SDS011;29384;42.028;21.388;2022-08-07T03:36:55;14.77;;;3.92;;
42668;SDS011;29384;42.028;21.388;2022-08-07T03:39:23;3.40;;;3.10;;
42668;SDS011;29384;42.028;21.388;2022-08-07T03:41:50;3.53;;;3.33;;
42668;SDS011;29384;42.028;21.388;2022-08-07T03:44:16;3.88;;;3.58;;
42668;SDS011;29384;42.028;21.388;2022-08-07T03:46:41;4.05;;;3.25;;
42668;SDS011;29384;42.028;21.388;2022-08-07T03:49:07;3.35;;;3.08;;
42668;SDS011;29384;42.028;21.388;2022-08-07T03:51:34;3.00;;;2.70;;
42668;SDS011;29384;42.028;21.388;2022-08-07T03:54:00;4.28;;;3.22;;
42668;SDS011;29384;42.028;21.388;2022-08-07T03:56:26;2.70;;;2.50;;
42668;SDS011;29384;42.028;21.388;2022-08-07T03:58:55;7.95;;;3.13;;
42668;SDS011;29384;42.028;21.388;2022-08-07T04:01:21;3.85;;;2.92;;
42668;SDS011;29384;42.028;21.388;2022-08-07T04:03:48;3.67;;;2.78;;
42668;SDS011;29384;42.028;21.388;2022-08-07T04:06:14;2.97;;;2.88;;
42668;SDS011;29384;42.028;21.388;2022-08-07T04:08:40;6.65;;;3.85;;
42668;SDS011;29384;42.028;21.388;2022-08-07T04:11:06;3.50;;;3.10;;
42668;SDS011;29384;42.028;21.388;2022-08-07T04:13:34;4.57;;;3.05;;
42668;SDS011;29384;42.028;21.388;2022-08-07T04:15:59;2.65;;;2.47;;
42668;SDS011;29384;42.028;21.388;2022-08-07T04:18:25;2.97;;;2.33;;
42668;SDS011;29384;42.028;21.388;2022-08-07T04:20:51;2.80;;;2.55;;
42668;SDS011;29384;42.028;21.388;2022-08-07T04:23:17;2.67;;;2.50;;
42668;SDS011;29384;42.028;21.388;2022-08-07T04:25:42;2.22;;;2.15;;
42668;SDS011;29384;42.028;21.388;2022-08-07T04:31:58;2.63;;;2.53;;
42668;SDS011;29384;42.028;21.388;2022-08-07T04:34:24;5.85;;;3.00;;
42668;SDS011;29384;42.028;21.388;2022-08-07T04:36:50;3.63;;;2.97;;
42668;SDS011;29384;42.028;21.388;2022-08-07T04:39:15;2.35;;;2.25;;
42668;SDS011;29384;42.028;21.388;2022-08-07T04:41:41;2.55;;;2.45;;
42668;SDS011;29384;42.028;21.388;2022-08-07T04:44:06;4.50;;;3.08;;
42668;SDS011;29384;42.028;21.388;2022-08-07T04:49:37;6.10;;;3.25;;
42668;SDS011;29384;42.028;21.388;2022-08-07T04:55:02;5.05;;;2.97;;
42668;SDS011;29384;42.028;21.388;2022-08-07T05:00:13;2.85;;;2.75;;
42668;SDS011;29384;42.028;21.388;2022-08-07T05:05:29;4.13;;;3.28;;
42668;SDS011;29384;42.028;21.388;2022-08-07T05:08:05;5.80;;;4.07;;
42668;SDS011;29384;42.028;21.388;2022-08-07T05:10:38;4.40;;;3.10;;
42668;SDS011;29384;42.028;21.388;2022-08-07T05:15:46;3.30;;;3.00;;
42668;SDS011;29384;42.028;21.388;2022-08-07T05:18:18;4.43;;;3.42;;
42668;SDS011;29384;42.028;21.388;2022-08-07T05:20:47;6.30;;;4.15;;
42668;SDS011;29384;42.028;21.388;2022-08-07T05:23:37;4.25;;;3.30;;
42668;SDS011;29384;42.028;21.388;2022-08-07T05:26:07;3.75;;;3.47;;
42668;SDS011;29384;42.028;21.388;2022-08-07T05:28:37;8.18;;;4.07;;
42668;SDS011;29384;42.028;21.388;2022-08-07T05:31:04;5.38;;;3.08;;
42668;SDS011;29384;42.028;21.388;2022-08-07T05:33:33;4.82;;;3.50;;
42668;SDS011;29384;42.028;21.388;2022-08-07T05:36:01;13.23;;;3.72;;
42668;SDS011;29384;42.028;21.388;2022-08-07T05:38:28;4.57;;;2.58;;
42668;SDS011;29384;42.028;21.388;2022-08-07T05:40:54;4.53;;;2.78;;
42668;SDS011;29384;42.028;21.388;2022-08-07T05:43:20;3.10;;;3.00;;
42668;SDS011;29384;42.028;21.388;2022-08-07T05:45:46;3.22;;;2.95;;
42668;SDS011;29384;42.028;21.388;2022-08-07T05:48:13;3.22;;;2.65;;
42668;SDS011;29384;42.028;21.388;2022-08-07T05:50:39;2.85;;;2.38;;
42668;SDS011;29384;42.028;21.388;2022-08-07T05:53:06;2.22;;;1.85;;
42668;SDS011;29384;42.028;21.388;2022-08-07T05:55:34;5.38;;;2.55;;
42668;SDS011;29384;42.028;21.388;2022-08-07T05:58:01;4.78;;;2.72;;
42668;SDS011;29384;42.028;21.388;2022-08-07T06:00:27;8.18;;;2.85;;
42668;SDS011;29384;42.028;21.388;2022-08-07T06:02:55;2.72;;;1.80;;
42668;SDS011;29384;42.028;21.388;2022-08-07T06:05:24;3.67;;;2.03;;
42668;SDS011;29384;42.028;21.388;2022-08-07T06:07:56;13.57;;;3.15;;
42668;SDS011;29384;42.028;21.388;2022-08-07T06:10:24;1.77;;;1.67;;
42668;SDS011;29384;42.028;21.388;2022-08-07T06:12:51;6.28;;;1.90;;
42668;SDS011;29384;42.028;21.388;2022-08-07T06:15:17;3.72;;;1.90;;
42668;SDS011;29384;42.028;21.388;2022-08-07T06:17:44;5.82;;;1.52;;
42668;SDS011;29384;42.028;21.388;2022-08-07T06:20:10;10.18;;;1.80;;
42668;SDS011;29384;42.028;21.388;2022-08-07T06:22:36;1.63;;;1.52;;
42668;SDS011;29384;42.028;21.388;2022-08-07T06:25:04;2.15;;;1.67;;
42668;SDS011;29384;42.028;21.388;2022-08-07T06:27:30;2.38;;;2.17;;
42668;SDS011;29384;42.028;21.388;2022-08-07T06:29:56;2.97;;;1.55;;
42668;SDS011;29384;42.028;21.388;2022-08-07T06:32:22;2.17;;;2.08;;
42668;SDS011;29384;42.028;21.388;2022-08-07T06:34:47;1.73;;;1.58;;
42668;SDS011;29384;42.028;21.388;2022-08-07T06:37:13;3.45;;;1.48;;
42668;SDS011;29384;42.028;21.388;2022-08-07T06:39:38;2.05;;;1.92;;
42668;SDS011;29384;42.028;21.388;2022-08-07T06:42:17;4.32;;;2.13;;
42668;SDS011;29384;42.028;21.388;2022-08-07T06:44:49;3.10;;;1.67;;
42668;SDS011;29384;42.028;21.388;2022-08-07T06:47:16;4.95;;;1.33;;
42668;SDS011;29384;42.028;21.388;2022-08-07T06:49:43;3.50;;;2.28;;
42668;SDS011;29384;42.028;21.388;2022-08-07T06:52:09;1.38;;;1.38;;
42668;SDS011;29384;42.028;21.388;2022-08-07T06:54:37;2.60;;;1.83;;
42668;SDS011;29384;42.028;21.388;2022-08-07T06:57:07;2.60;;;2.03;;
42668;SDS011;29384;42.028;21.388;2022-08-07T06:59:34;1.88;;;1.40;;
42668;SDS011;29384;42.028;21.388;2022-08-07T07:02:02;2.35;;;1.77;;
42668;SDS011;29384;42.028;21.388;2022-08-07T07:04:32;2.30;;;2.20;;
42668;SDS011;29384;42.028;21.388;2022-08-07T07:06:58;2.88;;;1.85;;
42668;SDS011;29384;42.028;21.388;2022-08-07T07:09:26;3.97;;;2.33;;
42668;SDS011;29384;42.028;21.388;2022-08-07T07:12:07;2.13;;;1.63;;
42668;SDS011;29384;42.028;21.388;2022-08-07T07:18:39;2.28;;;1.67;;
42668;SDS011;29384;42.028;21.388;2022-08-07T07:21:15;6.50;;;2.75;;
42668;SDS011;29384;42.028;21.388;2022-08-07T07:23:50;2.88;;;2.42;;
42668;SDS011;29384;42.028;21.388;2022-08-07T07:26:16;1.95;;;1.77;;
42668;SDS011;29384;42.028;21.388;2022-08-07T07:28:48;8.15;;;1.98;;
42668;SDS011;29384;42.028;21.388;2022-08-07T07:34:05;3.50;;;1.85;;
42668;SDS011;29384;42.028;21.388;2022-08-07T07:36:33;1.63;;;1.52;;
42668;SDS011;29384;42.028;21.388;2022-08-07T07:39:04;2.03;;;1.95;;
42668;SDS011;29384;42.028;21.388;2022-08-07T07:41:30;5.03;;;2.00;;
42668;SDS011;29384;42.028;21.388;2022-08-07T07:43:57;1.63;;;1.63;;
42668;SDS011;29384;42.028;21.388;2022-08-07T07:46:26;2.20;;;2.00;;
42668;SDS011;29384;42.028;21.388;2022-08-07T07:48:55;2.08;;;1.98;;
42668;SDS011;29384;42.028;21.388;2022-08-07T07:51:23;2.65;;;2.20;;
42668;SDS011;29384;42.028;21.388;2022-08-07T07:53:51;7.47;;;2.55;;
42668;SDS011;29384;42.028;21.388;2022-08-07T07:56:18;3.97;;;2.58;;
42668;SDS011;29384;42.028;21.388;2022-08-07T07:58:44;4.40;;;2.22;;
42668;SDS011;29384;42.028;21.388;2022-08-07T08:01:10;2.22;;;2.00;;
42668;SDS011;29384;42.028;21.388;2022-08-07T08:03:37;2.47;;;2.28;;
42668;SDS011;29384;42.028;21.388;2022-08-07T08:06:07;5.25;;;2.80;;
42668;SDS011;29384;42.028;21.388;2022-08-07T08:08:34;3.88;;;1.73;;
42668;SDS011;29384;42.028;21.388;2022-08-07T08:11:01;1.40;;;1.40;;
42668;SDS011;29384;42.028;21.388;2022-08-07T08:13:31;2.67;;;2.40;;
42668;SDS011;29384;42.028;21.388;2022-08-07T08:16:00;2.63;;;1.70;;
42668;SDS011;29384;42.028;21.388;2022-08-07T08:18:26;3.33;;;2.97;;
42668;SDS011;29384;42.028;21.388;2022-08-07T08:20:53;5.47;;;2.05;;
42668;SDS011;29384;42.028;21.388;2022-08-07T08:23:22;7.28;;;2.58;;
42668;SDS011;29384;42.028;21.388;2022-08-07T08:26:07;2.20;;;1.92;;
42668;SDS011;29384;42.028;21.388;2022-08-07T08:28:54;2.63;;;2.42;;
42668;SDS011;29384;42.028;21.388;2022-08-07T08:31:24;1.50;;;1.50;;
42668;SDS011;29384;42.028;21.388;2022-08-07T08:33:52;8.02;;;2.08;;
42668;SDS011;29384;42.028;21.388;2022-08-07T08:36:19;14.20;;;3.38;;
42668;SDS011;29384;42.028;21.388;2022-08-07T08:38:47;3.17;;;2.05;;
42668;SDS011;29384;42.028;21.388;2022-08-07T08:41:33;4.65;;;2.05;;
42668;SDS011;29384;42.028;21.388;2022-08-07T08:44:24;2.20;;;2.05;;
42668;SDS011;29384;42.028;21.388;2022-08-07T08:47:07;2.45;;;2.28;;
42668;SDS011;29384;42.028;21.388;2022-08-07T08:49:45;2.00;;;1.83;;
42668;SDS011;29384;42.028;21.388;2022-08-07T08:52:30;2.65;;;2.55;;
42668;SDS011;29384;42.028;21.388;2022-08-07T08:55:08;2.63;;;2.13;;
42668;SDS011;29384;42.028;21.388;2022-08-07T09:01:14;2.75;;;2.38;;
42668;SDS011;29384;42.028;21.388;2022-08-07T09:03:51;8.88;;;1.95;;
42668;SDS011;29384;42.028;21.388;2022-08-07T09:06:25;2.33;;;2.15;;
42668;SDS011;29384;42.028;21.388;2022-08-07T09:09:11;6.95;;;2.33;;
42668;SDS011;29384;42.028;21.388;2022-08-07T09:11:45;3.47;;;2.08;;
42668;SDS011;29384;42.028;21.388;2022-08-07T09:18:25;2.08;;;1.98;;
42668;SDS011;29384;42.028;21.388;2022-08-07T09:20:56;2.30;;;2.20;;
42668;SDS011;29384;42.028;21.388;2022-08-07T09:23:54;3.10;;;2.25;;
42668;SDS011;29384;42.028;21.388;2022-08-07T09:26:38;7.60;;;2.35;;
42668;SDS011;29384;42.028;21.388;2022-08-07T09:35:32;2.70;;;2.00;;
42668;SDS011;29384;42.028;21.388;2022-08-07T09:38:08;1.88;;;1.88;;
42668;SDS011;29384;42.028;21.388;2022-08-07T09:49:58;1.63;;;1.52;;
42668;SDS011;29384;42.028;21.388;2022-08-07T09:52:30;6.78;;;2.22;;
42668;SDS011;29384;42.028;21.388;2022-08-07T09:54:58;2.10;;;2.00;;
42668;SDS011;29384;42.028;21.388;2022-08-07T09:57:43;2.20;;;2.10;;
42668;SDS011;29384;42.028;21.388;2022-08-07T10:04:27;1.73;;;1.63;;
42668;SDS011;29384;42.028;21.388;2022-08-07T10:24:05;2.00;;;1.90;;
42668;SDS011;29384;42.028;21.388;2022-08-07T10:26:41;2.83;;;2.35;;
42668;SDS011;29384;42.028;21.388;2022-08-07T10:29:36;3.88;;;2.55;;
42668;SDS011;29384;42.028;21.388;2022-08-07T10:37:58;3.05;;;2.20;;
42668;SDS011;29384;42.028;21.388;2022-08-07T10:40:44;2.47;;;2.38;;
42668;SDS011;29384;42.028;21.388;2022-08-07T10:46:42;4.30;;;2.42;;
42668;SDS011;29384;42.028;21.388;2022-08-07T10:49:46;2.75;;;2.65;;
42668;SDS011;29384;42.028;21.388;2022-08-07T10:53:04;20.27;;;3.67;;
42668;SDS011;29384;42.028;21.388;2022-08-07T10:55:49;2.40;;;2.30;;
42668;SDS011;29384;42.028;21.388;2022-08-07T11:10:17;6.03;;;5.00;;
42668;SDS011;29384;42.028;21.388;2022-08-07T11:12:54;5.32;;;3.83;;
42668;SDS011;29384;42.028;21.388;2022-08-07T11:18:53;7.32;;;4.07;;
42668;SDS011;29384;42.028;21.388;2022-08-07T11:21:28;2.00;;;1.90;;
42668;SDS011;29384;42.028;21.388;2022-08-07T11:26:46;10.38;;;3.35;;
42668;SDS011;29384;42.028;21.388;2022-08-07T11:29:26;2.50;;;2.40;;
42668;SDS011;29384;42.028;21.388;2022-08-07T11:32:08;2.15;;;2.10;;
42668;SDS011;29384;42.028;21.388;2022-08-07T11:35:02;2.42;;;2.15;;
42668;SDS011;29384;42.028;21.388;2022-08-07T11:40:39;2.28;;;2.17;;
42668;SDS011;29384;42.028;21.388;2022-08-07T11:46:38;2.65;;;1.88;;
42668;SDS011;29384;42.028;21.388;2022-08-07T11:54:20;2.20;;;2.00;;
42668;SDS011;29384;42.028;21.388;2022-08-07T12:08:25;2.20;;;2.20;;
42668;SDS011;29384;42.028;21.388;2022-08-07T12:10:58;1.75;;;1.70;;
42668;SDS011;29384;42.028;21.388;2022-08-07T12:20:29;1.95;;;1.85;;
42668;SDS011;29384;42.028;21.388;2022-08-07T12:31:58;2.22;;;1.85;;
42668;SDS011;29384;42.028;21.388;2022-08-07T12:34:32;2.38;;;2.17;;
42668;SDS011;29384;42.028;21.388;2022-08-07T12:37:01;1.80;;;1.63;;
42668;SDS011;29384;42.028;21.388;2022-08-07T12:39:28;2.28;;;2.00;;
42668;SDS011;29384;42.028;21.388;2022-08-07T12:41:56;1.77;;;1.77;;
42668;SDS011;29384;42.028;21.388;2022-08-07T12:47:46;1.80;;;1.52;;
42668;SDS011;29384;42.028;21.388;2022-08-07T12:53:06;2.15;;;2.05;;
42668;SDS011;29384;42.028;21.388;2022-08-07T12:55:36;1.30;;;1.30;;
42668;SDS011;29384;42.028;21.388;2022-08-07T12:58:06;1.50;;;1.50;;
42668;SDS011;29384;42.028;21.388;2022-08-07T13:06:58;1.85;;;1.83;;
42668;SDS011;29384;42.028;21.388;2022-08-07T13:21:23;2.05;;;1.95;;
42668;SDS011;29384;42.028;21.388;2022-08-07T13:29:09;2.42;;;2.33;;
42668;SDS011;29384;42.028;21.388;2022-08-07T13:31:49;1.45;;;1.45;;
42668;SDS011;29384;42.028;21.388;2022-08-07T13:37:07;2.75;;;2.65;;
42668;SDS011;29384;42.028;21.388;2022-08-07T13:39:42;3.60;;;1.65;;
42668;SDS011;29384;42.028;21.388;2022-08-07T13:42:14;2.40;;;2.20;;
42668;SDS011;29384;42.028;21.388;2022-08-07T13:44:42;2.70;;;2.20;;
42668;SDS011;29384;42.028;21.388;2022-08-07T13:47:09;2.47;;;2.38;;
42668;SDS011;29384;42.028;21.388;2022-08-07T13:49:41;3.97;;;1.85;;
42668;SDS011;29384;42.028;21.388;2022-08-07T13:52:09;2.25;;;2.15;;
42668;SDS011;29384;42.028;21.388;2022-08-07T13:54:36;1.58;;;1.48;;
42668;SDS011;29384;42.028;21.388;2022-08-07T13:57:05;1.60;;;1.60;;
42668;SDS011;29384;42.028;21.388;2022-08-07T13:59:38;1.55;;;1.55;;
42668;SDS011;29384;42.028;21.388;2022-08-07T14:02:29;4.45;;;2.20;;
42668;SDS011;29384;42.028;21.388;2022-08-07T14:04:58;2.65;;;1.60;;
42668;SDS011;29384;42.028;21.388;2022-08-07T14:07:32;2.05;;;2.00;;
42668;SDS011;29384;42.028;21.388;2022-08-07T14:10:02;2.60;;;2.45;;
42668;SDS011;29384;42.028;21.388;2022-08-07T14:12:35;2.22;;;2.13;;
42668;SDS011;29384;42.028;21.388;2022-08-07T14:15:04;2.05;;;1.95;;
42668;SDS011;29384;42.028;21.388;2022-08-07T14:17:35;1.50;;;1.50;;
42668;SDS011;29384;42.028;21.388;2022-08-07T14:23:05;1.73;;;1.63;;
42668;SDS011;29384;42.028;21.388;2022-08-07T14:25:35;2.15;;;2.05;;
42668;SDS011;29384;42.028;21.388;2022-08-07T14:28:03;1.92;;;1.92;;
42668;SDS011;29384;42.028;21.388;2022-08-07T14:30:32;2.20;;;2.10;;
42668;SDS011;29384;42.028;21.388;2022-08-07T14:32:59;2.15;;;2.05;;
42668;SDS011;29384;42.028;21.388;2022-08-07T14:35:28;1.70;;;1.60;;
42668;SDS011;29384;42.028;21.388;2022-08-07T14:37:56;2.17;;;2.08;;
42668;SDS011;29384;42.028;21.388;2022-08-07T14:40:23;1.88;;;1.88;;
42668;SDS011;29384;42.028;21.388;2022-08-07T14:45:53;1.70;;;1.70;;
42668;SDS011;29384;42.028;21.388;2022-08-07T14:48:30;2.33;;;1.83;;
42668;SDS011;29384;42.028;21.388;2022-08-07T14:50:59;2.42;;;2.15;;
42668;SDS011;29384;42.028;21.388;2022-08-07T14:53:29;1.75;;;1.67;;
42668;SDS011;29384;42.028;21.388;2022-08-07T14:55:57;2.10;;;2.08;;
42668;SDS011;29384;42.028;21.388;2022-08-07T14:58:30;2.17;;;2.08;;
42668;SDS011;29384;42.028;21.388;2022-08-07T15:00:57;2.17;;;2.08;;
42668;SDS011;29384;42.028;21.388;2022-08-07T15:03:25;2.05;;;1.95;;
42668;SDS011;29384;42.028;21.388;2022-08-07T15:05:53;2.25;;;2.10;;
42668;SDS011;29384;42.028;21.388;2022-08-07T15:08:24;2.22;;;2.13;;
42668;SDS011;29384;42.028;21.388;2022-08-07T15:11:08;6.03;;;3.67;;
42668;SDS011;29384;42.028;21.388;2022-08-07T15:16:40;2.70;;;2.60;;
42668;SDS011;29384;42.028;21.388;2022-08-07T15:19:16;2.38;;;2.28;;
42668;SDS011;29384;42.028;21.388;2022-08-07T15:21:50;2.63;;;2.42;;
42668;SDS011;29384;42.028;21.388;2022-08-07T15:24:21;5.47;;;2.65;;
42668;SDS011;29384;42.028;21.388;2022-08-07T15:32:54;2.25;;;2.15;;
42668;SDS011;29384;42.028;21.388;2022-08-07T15:35:21;2.92;;;2.72;;
42668;SDS011;29384;42.028;21.388;2022-08-07T15:37:54;2.25;;;2.15;;
42668;SDS011;29384;42.028;21.388;2022-08-07T15:40:22;2.78;;;2.42;;
42668;SDS011;29384;42.028;21.388;2022-08-07T15:42:51;2.40;;;2.30;;
42668;SDS011;29384;42.028;21.388;2022-08-07T15:48:45;4.78;;;2.78;;
42668;SDS011;29384;42.028;21.388;2022-08-07T15:51:13;2.30;;;2.20;;
42668;SDS011;29384;42.028;21.388;2022-08-07T15:53:42;36.05;;;4.07;;
42668;SDS011;29384;42.028;21.388;2022-08-07T15:56:11;4.70;;;3.30;;
42668;SDS011;29384;42.028;21.388;2022-08-07T15:58:46;2.28;;;2.20;;
42668;SDS011;29384;42.028;21.388;2022-08-07T16:04:39;2.85;;;2.40;;
42668;SDS011;29384;42.028;21.388;2022-08-07T16:07:06;3.80;;;1.83;;
42668;SDS011;29384;42.028;21.388;2022-08-07T16:09:51;1.70;;;1.63;;
42668;SDS011;29384;42.028;21.388;2022-08-07T16:15:30;2.38;;;2.15;;
42668;SDS011;29384;42.028;21.388;2022-08-07T16:32:46;8.70;;;1.58;;
42668;SDS011;29384;42.028;21.388;2022-08-07T16:55:05;1.60;;;1.50;;
42668;SDS011;29384;42.028;21.388;2022-08-07T16:57:47;2.05;;;1.30;;
42668;SDS011;29384;42.028;21.388;2022-08-07T17:06:56;6.57;;;2.65;;
42668;SDS011;29384;42.028;21.388;2022-08-07T17:12:05;1.92;;;1.75;;
42668;SDS011;29384;42.028;21.388;2022-08-07T17:20:39;1.63;;;1.52;;
42668;SDS011;29384;42.028;21.388;2022-08-07T17:28:31;1.77;;;1.77;;
42668;SDS011;29384;42.028;21.388;2022-08-07T17:33:34;1.73;;;1.73;;
42668;SDS011;29384;42.028;21.388;2022-08-07T17:36:03;2.03;;;1.92;;
42668;SDS011;29384;42.028;21.388;2022-08-07T17:46:58;1.50;;;1.50;;
42668;SDS011;29384;42.028;21.388;2022-08-07T17:49:34;1.67;;;1.65;;
42668;SDS011;29384;42.028;21.388;2022-08-07T17:54:49;1.83;;;1.73;;
42668;SDS011;29384;42.028;21.388;2022-08-07T17:59:58;2.92;;;2.40;;
42668;SDS011;29384;42.028;21.388;2022-08-07T18:02:39;1.63;;;1.52;;
42668;SDS011;29384;42.028;21.388;2022-08-07T18:10:41;2.03;;;1.92;;
42668;SDS011;29384;42.028;21.388;2022-08-07T18:19:31;3.22;;;2.20;;
42668;SDS011;29384;42.028;21.388;2022-08-07T18:24:56;2.53;;;2.42;;
42668;SDS011;29384;42.028;21.388;2022-08-07T18:27:36;4.72;;;2.55;;
42668;SDS011;29384;42.028;21.388;2022-08-07T18:30:15;2.60;;;2.22;;
42668;SDS011;29384;42.028;21.388;2022-08-07T18:36:21;2.88;;;2.58;;
42668;SDS011;29384;42.028;21.388;2022-08-07T18:59:20;4.40;;;3.08;;
42668;SDS011;29384;42.028;21.388;2022-08-07T19:10:49;4.95;;;3.33;;
42668;SDS011;29384;42.028;21.388;2022-08-07T19:22:19;3.08;;;2.78;;
42668;SDS011;29384;42.028;21.388;2022-08-07T19:24:49;14.02;;;7.13;;
42668;SDS011;29384;42.028;21.388;2022-08-07T19:27:18;7.47;;;4.70;;
42668;SDS011;29384;42.028;21.388;2022-08-07T19:29:56;3.85;;;3.40;;
42668;SDS011;29384;42.028;21.388;2022-08-07T19:35:52;3.75;;;3.50;;
42668;SDS011;29384;42.028;21.388;2022-08-07T19:38:20;13.30;;;6.78;;
42668;SDS011;29384;42.028;21.388;2022-08-07T19:40:50;57.60;;;25.52;;
42668;SDS011;29384;42.028;21.388;2022-08-07T19:43:25;27.27;;;13.32;;
42668;SDS011;29384;42.028;21.388;2022-08-07T19:45:54;3.40;;;2.47;;
42668;SDS011;29384;42.028;21.388;2022-08-07T19:51:44;1.90;;;1.80;;
42668;SDS011;29384;42.028;21.388;2022-08-07T19:54:11;1.65;;;1.55;;
42668;SDS011;29384;42.028;21.388;2022-08-07T19:56:37;1.85;;;1.75;;
42668;SDS011;29384;42.028;21.388;2022-08-07T20:01:50;2.22;;;2.13;;
42668;SDS011;29384;42.028;21.388;2022-08-07T20:04:19;9.57;;;2.13;;
42668;SDS011;29384;42.028;21.388;2022-08-07T20:06:49;2.25;;;2.05;;
42668;SDS011;29384;42.028;21.388;2022-08-07T20:09:18;2.55;;;1.55;;
42668;SDS011;29384;42.028;21.388;2022-08-07T20:11:44;2.10;;;2.00;;
42668;SDS011;29384;42.028;21.388;2022-08-07T20:14:16;2.22;;;2.13;;
42668;SDS011;29384;42.028;21.388;2022-08-07T20:16:46;2.05;;;1.92;;
42668;SDS011;29384;42.028;21.388;2022-08-07T20:19:12;1.70;;;1.60;;
42668;SDS011;29384;42.028;21.388;2022-08-07T20:21:47;3.40;;;1.83;;
42668;SDS011;29384;42.028;21.388;2022-08-07T20:24:17;2.53;;;2.17;;
42668;SDS011;29384;42.028;21.388;2022-08-07T20:26:46;1.63;;;1.60;;
42668;SDS011;29384;42.028;21.388;2022-08-07T20:29:16;2.22;;;2.13;;
42668;SDS011;29384;42.028;21.388;2022-08-07T20:31:45;1.23;;;1.23;;
42668;SDS011;29384;42.028;21.388;2022-08-07T20:34:12;2.08;;;1.98;;
42668;SDS011;29384;42.028;21.388;2022-08-07T20:36:43;6.57;;;2.65;;
42668;SDS011;29384;42.028;21.388;2022-08-07T20:39:17;2.65;;;2.45;;